In Rescue
 
Open Full Screen Window  High Contrast Mode
Wind Gusting 00 knots
06
August 09, 2020 5:24 PM CDT
Weather Information
Wind Direction
  140 °
Wind Speed
  06 kt (7 mph)
Wind Gust
  00 kt (0 mph)
Altimeter
29.83 in
Visibility
10 SM
Temperature
24° C
75° F
Dewpoint
20° C
68° F
Humidity
78%
1hr Rain Fall
00.00 in.
24hr Rain Fall
00.00 in.
Sky Condition
Clear
VFR

METAR KEVM 092224Z AUTO 14006KT 10SM CLR 24/20 A2983 RMK AO2 T02410196 PWINO

FAA Disclaimer: The data displayed is for advisory purposes only and is not to be used for flight planning or operations.